Time;durP1;ratioP1;P1;durP2;ratioP2;P2;SDS_P1;SDS_P2;PMS_P1;PMS_P2;Temp;Humidity;BMP_temperature;BMP_pressure;BME280_temperature;BME280_humidity;BME280_pressure;Samples;Min_cycle;Max_cycle;Signal;HPM_P1;HPM_P2
2023/05/17 00:00:34;;;;;;;0.80;0.50;;;8.60;1.00;;;;;;5013274;28;20473;-79
2023/05/17 00:03:03;;;;;;;0.20;0.20;;;8.60;1.00;;;;;;5024334;28;20833;-79
2023/05/17 00:05:30;;;;;;;0.20;0.20;;;8.70;1.00;;;;;;5021322;28;20462;-79
2023/05/17 00:07:57;;;;;;;0.30;0.30;;;8.60;1.00;;;;;;5025139;28;20944;-79
2023/05/17 00:10:24;;;;;;;0.60;0.32;;;8.60;1.00;;;;;;5025902;28;20522;-79
2023/05/17 00:12:51;;;;;;;7.80;0.32;;;8.60;1.00;;;;;;5021127;28;20778;-79
2023/05/17 00:15:17;;;;;;;0.30;0.30;;;8.50;1.00;;;;;;5040886;28;20471;-80
2023/05/17 00:17:44;;;;;;;0.28;0.28;;;8.40;1.00;;;;;;5022159;28;20443;-78
2023/05/17 00:20:11;;;;;;;0.20;0.17;;;8.30;1.00;;;;;;5022620;28;20446;-79
2023/05/17 00:22:39;;;;;;;1.00;0.90;;;8.30;1.00;;;;;;5022738;28;20552;-79
2023/05/17 00:25:06;;;;;;;0.35;0.35;;;8.30;1.00;;;;;;5017319;28;20444;-79
2023/05/17 00:27:42;;;;;;;0.20;0.20;;;8.20;1.00;;;;;;5021438;28;20651;-79
2023/05/17 00:30:09;;;;;;;0.90;0.20;;;8.20;1.00;;;;;;5016569;28;20505;-79
2023/05/17 00:32:37;;;;;;;0.28;0.28;;;8.10;1.00;;;;;;5013049;28;20491;-79
2023/05/17 00:35:04;;;;;;;0.25;0.25;;;8.10;1.00;;;;;;5022957;28;20438;-79
2023/05/17 00:37:31;;;;;;;1.40;1.00;;;7.90;1.00;;;;;;5025877;28;20426;-79
2023/05/17 00:39:58;;;;;;;0.37;0.37;;;7.70;45.10;;;;;;5021247;28;20560;-79
2023/05/17 00:42:25;;;;;;;1.23;0.82;;;7.60;99.90;;;;;;5017528;28;20543;-79
2023/05/17 00:44:51;;;;;;;0.22;0.22;;;7.60;99.90;;;;;;5024133;28;20438;-79
2023/05/17 00:47:18;;;;;;;1.50;0.60;;;7.50;99.90;;;;;;5024328;28;20498;-80
2023/05/17 00:49:48;;;;;;;0.20;0.20;;;7.40;1.00;;;;;;5007261;28;20443;-79
2023/05/17 00:52:15;;;;;;;0.30;0.30;;;7.30;1.00;;;;;;5018907;28;20516;-79
2023/05/17 00:54:42;;;;;;;2.80;0.35;;;7.20;1.00;;;;;;5018072;28;20979;-79
2023/05/17 00:57:09;;;;;;;0.38;0.38;;;7.20;99.90;;;;;;5014544;28;20994;-79
2023/05/17 00:59:37;;;;;;;0.60;0.60;;;7.10;99.90;;;;;;5021148;28;20509;-79
2023/05/17 01:02:04;;;;;;;1.75;0.77;;;7.00;1.00;;;;;;5019761;28;20425;-79
2023/05/17 01:04:31;;;;;;;1.40;0.70;;;6.90;24.60;;;;;;5017737;28;20738;-79
2023/05/17 01:06:58;;;;;;;0.90;0.40;;;6.80;99.90;;;;;;5019952;28;20445;-79
2023/05/17 01:09:25;;;;;;;0.70;0.30;;;6.80;1.00;;;;;;5021678;28;20496;-79
2023/05/17 01:11:52;;;;;;;0.90;0.47;;;6.70;1.00;;;;;;5024248;28;20453;-79
2023/05/17 01:14:46;;;;;;;0.50;0.50;;;6.60;99.90;;;;;;5021666;28;20434;-79
2023/05/17 01:17:55;;;;;;;0.60;0.60;;;6.50;99.90;;;;;;5022159;28;20517;-79
2023/05/17 01:20:42;;;;;;;0.40;0.40;;;6.40;1.00;;;;;;5012821;28;20817;-79
2023/05/17 01:23:30;;;;;;;0.80;0.70;;;6.30;99.90;;;;;;5021975;28;21025;-79
2023/05/17 01:26:17;;;;;;;0.75;0.75;;;6.20;1.00;;;;;;5031255;28;22406;-79
2023/05/17 01:28:47;;;;;;;0.30;0.30;;;6.10;99.90;;;;;;5019115;28;20435;-79
2023/05/17 01:31:15;;;;;;;0.57;0.57;;;6.10;1.00;;;;;;5023319;28;20435;-79
2023/05/17 01:33:42;;;;;;;0.63;0.63;;;6.00;99.90;;;;;;5017347;28;20511;-79
2023/05/17 01:36:09;;;;;;;0.50;0.50;;;6.00;1.00;;;;;;5021613;28;20431;-78
2023/05/17 01:38:36;;;;;;;0.50;0.50;;;6.00;1.00;;;;;;5011925;28;20433;-79
2023/05/17 01:41:21;;;;;;;0.73;0.73;;;5.90;2.70;;;;;;5012689;28;20803;-78
2023/05/17 01:44:09;;;;;;;0.30;0.30;;;5.90;99.90;;;;;;5020014;28;20988;-79
2023/05/17 01:46:39;;;;;;;0.67;0.63;;;5.90;99.90;;;;;;5020466;28;20497;-79
2023/05/17 01:49:29;;;;;;;0.67;0.60;;;5.80;99.90;;;;;;5020523;28;20447;-79
2023/05/17 01:52:05;;;;;;;0.50;0.50;;;5.70;1.00;;;;;;5013882;28;20526;-79
2023/05/17 01:54:42;;;;;;;0.40;0.40;;;5.70;1.00;;;;;;5022378;28;20440;-79
2023/05/17 01:57:10;;;;;;;0.32;0.32;;;5.70;1.00;;;;;;5024004;28;20432;-79
2023/05/17 01:59:38;;;;;;;1.30;0.60;;;5.70;7.60;;;;;;5018938;28;20427;-79
2023/05/17 02:02:08;;;;;;;0.30;0.30;;;5.70;99.90;;;;;;5025934;28;20522;-78
2023/05/17 02:04:35;;;;;;;3.83;0.55;;;5.70;99.90;;;;;;5022339;28;20894;-78
2023/05/17 02:07:02;;;;;;;0.40;0.40;;;5.70;99.90;;;;;;5020314;28;20549;-79
2023/05/17 02:09:29;;;;;;;0.60;0.60;;;5.70;99.90;;;;;;5023217;28;20526;-79
2023/05/17 02:11:56;;;;;;;0.32;0.32;;;5.70;99.90;;;;;;5008221;28;20501;-79
2023/05/17 02:14:23;;;;;;;0.43;0.30;;;5.60;99.90;;;;;;5021191;28;20460;-78
2023/05/17 02:16:50;;;;;;;1.10;0.57;;;5.60;99.90;;;;;;5022666;28;20864;-78
2023/05/17 02:19:17;;;;;;;0.30;0.30;;;5.60;99.90;;;;;;5019697;28;20461;-78
2023/05/17 02:21:44;;;;;;;0.50;0.50;;;5.60;99.90;;;;;;5022229;28;20438;-78
2023/05/17 02:24:11;;;;;;;2.70;1.20;;;5.70;99.90;;;;;;5020977;28;20493;-77
2023/05/17 02:26:41;;;;;;;1.20;1.10;;;5.80;99.90;;;;;;5020639;28;20466;-77
2023/05/17 02:29:10;;;;;;;0.40;0.40;;;5.80;99.90;;;;;;5020531;28;20569;-77
2023/05/17 02:31:36;;;;;;;2.15;0.85;;;5.80;99.90;;;;;;5023771;28;20439;-78
2023/05/17 02:34:03;;;;;;;0.90;0.40;;;5.80;99.90;;;;;;5018928;28;20431;-77
2023/05/17 02:36:31;;;;;;;1.83;0.77;;;5.70;99.90;;;;;;5017441;28;20442;-78
2023/05/17 02:39:00;;;;;;;0.45;0.45;;;5.70;99.90;;;;;;5009819;28;20439;-78
2023/05/17 02:41:27;;;;;;;1.00;0.52;;;5.60;99.90;;;;;;5018077;28;20434;-78
2023/05/17 02:43:54;;;;;;;0.57;0.57;;;5.50;99.90;;;;;;5028341;28;20430;-78
2023/05/17 02:46:21;;;;;;;0.77;0.55;;;5.60;99.90;;;;;;5027469;28;20483;-78
2023/05/17 02:48:48;;;;;;;0.80;0.60;;;5.50;99.90;;;;;;5024604;28;20525;-78
2023/05/17 02:51:14;;;;;;;0.70;0.70;;;5.60;1.00;;;;;;5026449;28;20474;-80
2023/05/17 02:53:41;;;;;;;0.70;0.70;;;5.60;99.90;;;;;;5023170;28;20529;-79
2023/05/17 02:56:08;;;;;;;0.68;0.63;;;5.60;1.00;;;;;;5016040;28;20866;-77
2023/05/17 02:58:35;;;;;;;0.73;0.60;;;5.60;1.00;;;;;;5023908;28;20431;-78
2023/05/17 03:01:04;;;;;;;0.57;0.57;;;5.60;1.00;;;;;;5026470;28;21054;-77
2023/05/17 03:03:31;;;;;;;0.40;0.40;;;5.60;1.00;;;;;;5021844;28;20436;-78
2023/05/17 03:06:03;;;;;;;0.40;0.40;;;5.50;1.00;;;;;;5026703;28;20437;-78
2023/05/17 03:08:30;;;;;;;3.35;0.68;;;5.60;1.00;;;;;;5028584;28;20450;-78
2023/05/17 03:11:00;;;;;;;2.38;0.63;;;5.60;1.00;;;;;;5027955;28;20435;-78
2023/05/17 03:13:27;;;;;;;0.47;0.47;;;5.60;1.00;;;;;;5022859;28;20501;-78
2023/05/17 03:15:53;;;;;;;0.53;0.53;;;5.60;1.00;;;;;;5024660;28;20509;-78
2023/05/17 03:18:20;;;;;;;0.30;0.30;;;5.50;1.00;;;;;;5023015;28;20684;-78
2023/05/17 03:20:47;;;;;;;0.32;0.32;;;5.40;99.90;;;;;;5031537;28;20442;-78
2023/05/17 03:23:14;;;;;;;0.57;0.47;;;5.30;1.00;;;;;;5025223;28;20846;-78
2023/05/17 03:25:43;;;;;;;1.90;0.77;;;5.30;1.00;;;;;;5022846;28;21287;-78
2023/05/17 03:28:10;;;;;;;1.27;0.70;;;5.20;1.00;;;;;;5022761;28;20484;-78
2023/05/17 03:30:40;;;;;;;1.10;0.50;;;5.20;1.00;;;;;;5020971;28;20427;-78
2023/05/17 03:33:07;;;;;;;1.08;0.50;;;5.30;1.00;;;;;;5035729;28;20431;-78
2023/05/17 03:35:34;;;;;;;0.80;0.80;;;5.40;1.00;;;;;;5021924;28;20783;-78
2023/05/17 03:38:00;;;;;;;0.57;0.57;;;5.40;1.00;;;;;;5014882;28;20444;-78
2023/05/17 03:40:27;;;;;;;0.60;0.60;;;5.40;1.00;;;;;;5020453;28;20500;-78
2023/05/17 03:42:54;;;;;;;0.52;0.52;;;5.40;1.00;;;;;;5022940;28;20468;-78
2023/05/17 03:45:21;;;;;;;0.60;0.60;;;5.40;1.00;;;;;;5021580;28;20438;-78
2023/05/17 03:47:47;;;;;;;1.60;0.55;;;5.30;1.00;;;;;;5015389;28;20486;-78
2023/05/17 03:50:14;;;;;;;0.22;0.22;;;5.30;1.00;;;;;;5022761;28;20435;-78
2023/05/17 03:52:41;;;;;;;1.50;0.50;;;5.30;1.00;;;;;;5024182;28;20465;-78
2023/05/17 03:55:08;;;;;;;1.05;0.47;;;5.30;1.00;;;;;;5023843;28;20485;-78
2023/05/17 03:57:35;;;;;;;0.40;0.40;;;5.40;1.00;;;;;;5024567;28;20517;-79
2023/05/17 04:00:05;;;;;;;0.63;0.63;;;5.40;1.00;;;;;;5027567;28;20431;-79
2023/05/17 04:02:32;;;;;;;0.40;0.40;;;5.40;1.00;;;;;;5015132;28;20437;-79
2023/05/17 04:04:59;;;;;;;0.68;0.43;;;5.50;1.00;;;;;;5018118;28;20532;-79
2023/05/17 04:07:26;;;;;;;0.38;0.38;;;5.50;1.00;;;;;;5021819;28;20466;-79
2023/05/17 04:09:57;;;;;;;3.45;0.60;;;5.50;1.00;;;;;;5026003;28;20485;-79
2023/05/17 04:12:25;;;;;;;0.22;0.22;;;5.50;1.00;;;;;;5044396;28;20442;-79
2023/05/17 04:14:51;;;;;;;0.65;0.65;;;5.50;1.00;;;;;;5026608;28;20921;-79
2023/05/17 04:17:18;;;;;;;2.03;0.63;;;5.60;1.00;;;;;;5017093;28;20436;-79
2023/05/17 04:19:46;;;;;;;0.75;0.75;;;5.60;1.00;;;;;;5011506;28;20447;-78
2023/05/17 04:22:13;;;;;;;1.77;0.65;;;5.60;1.00;;;;;;5021533;28;20442;-78
2023/05/17 04:24:40;;;;;;;0.40;0.40;;;5.60;1.00;;;;;;5026213;28;20461;-78
2023/05/17 04:27:07;;;;;;;0.20;0.20;;;5.70;1.00;;;;;;5026087;28;20462;-79
2023/05/17 04:29:33;;;;;;;0.63;0.60;;;5.80;1.00;;;;;;5023197;28;21051;-78
2023/05/17 04:32:00;;;;;;;0.60;0.50;;;5.80;1.00;;;;;;5020331;28;20827;-78
2023/05/17 04:34:27;;;;;;;0.40;0.40;;;5.80;1.00;;;;;;5024501;28;20426;-78
2023/05/17 04:36:54;;;;;;;0.30;0.30;;;5.90;1.00;;;;;;5027980;28;20935;-78
2023/05/17 04:39:21;;;;;;;0.80;0.52;;;6.20;1.00;;;;;;5014502;28;20469;-78
2023/05/17 04:41:53;;;;;;;0.63;0.63;;;6.70;1.00;;;;;;5039446;28;20442;-78
2023/05/17 04:44:20;;;;;;;6.40;0.60;;;7.50;1.00;;;;;;5022493;28;21197;-79
2023/05/17 04:46:47;;;;;;;0.40;0.40;;;8.20;1.00;;;;;;5019818;28;20463;-79
2023/05/17 04:49:14;;;;;;;0.85;0.47;;;8.90;1.00;;;;;;5021953;28;20434;-79
2023/05/17 04:51:40;;;;;;;0.77;0.77;;;9.40;99.90;;;;;;5019409;28;20447;-79
2023/05/17 04:54:07;;;;;;;0.85;0.38;;;10.00;99.90;;;;;;5020843;28;20508;-79
2023/05/17 04:56:35;;;;;;;1.00;0.40;;;10.50;1.00;;;;;;5015581;28;20431;-79
2023/05/17 04:59:02;;;;;;;0.70;0.70;;;11.00;99.90;;;;;;5020301;28;20482;-78
2023/05/17 05:01:29;;;;;;;0.80;0.70;;;11.50;1.00;;;;;;5014299;28;20825;-79
2023/05/17 05:03:57;;;;;;;0.60;0.60;;;11.90;1.00;;;;;;5009828;28;20454;-79
2023/05/17 05:06:24;;;;;;;0.30;0.30;;;12.00;99.90;;;;;;5017810;28;21555;-73
2023/05/17 05:08:51;;;;;;;0.73;0.73;;;12.10;99.90;;;;;;5020127;28;20442;-73
2023/05/17 05:11:18;;;;;;;0.32;0.32;;;12.10;99.90;;;;;;5014978;28;20457;-73
2023/05/17 05:13:45;;;;;;;1.42;0.73;;;12.10;99.90;;;;;;5025997;28;20662;-73
2023/05/17 05:16:12;;;;;;;0.50;0.50;;;12.20;99.90;;;;;;5020764;28;20913;-73
2023/05/17 05:18:38;;;;;;;6.60;1.25;;;12.40;99.90;;;;;;5022615;28;20453;-73
2023/05/17 05:21:05;;;;;;;0.30;0.30;;;12.50;99.90;;;;;;5018643;28;20435;-73
2023/05/17 05:23:32;;;;;;;0.50;0.50;;;12.40;99.90;;;;;;5014513;28;20474;-73
2023/05/17 05:25:59;;;;;;;0.65;0.63;;;12.40;99.90;;;;;;5010040;28;20444;-73
2023/05/17 05:28:26;;;;;;;0.70;0.50;;;12.70;99.90;;;;;;5014457;28;20786;-73
2023/05/17 05:30:59;;;;;;;0.70;0.70;;;12.80;99.90;;;;;;5015350;28;20448;-73
2023/05/17 05:33:32;;;;;;;1.90;0.43;;;12.80;99.90;;;;;;5009996;28;20573;-73
2023/05/17 05:35:59;;;;;;;0.90;0.90;;;12.90;99.90;;;;;;5013305;28;20435;-73
2023/05/17 05:38:26;;;;;;;0.40;0.40;;;12.80;99.90;;;;;;5019250;28;20526;-73
2023/05/17 05:40:53;;;;;;;2.45;0.77;;;13.00;99.90;;;;;;5016609;28;20505;-73
2023/05/17 05:43:19;;;;;;;0.45;0.45;;;13.40;99.90;;;;;;5016438;28;21013;-73
2023/05/17 05:45:49;;;;;;;0.50;0.50;;;13.60;99.90;;;;;;5018907;28;20852;-73
2023/05/17 05:48:16;;;;;;;1.92;0.52;;;13.80;99.90;;;;;;5019077;28;20441;-72
2023/05/17 05:50:43;;;;;;;0.40;0.40;;;14.10;99.90;;;;;;5014576;28;20499;-74
2023/05/17 05:53:11;;;;;;;1.05;1.00;;;14.10;99.90;;;;;;5020840;28;21187;-78
2023/05/17 05:55:45;;;;;;;2.40;0.60;;;14.20;99.90;;;;;;5012605;28;20451;-78
2023/05/17 05:58:14;;;;;;;0.60;0.40;;;14.20;99.90;;;;;;5023660;28;20457;-78
2023/05/17 06:00:41;;;;;;;1.13;0.53;;;14.30;99.90;;;;;;5020437;28;21687;-78
2023/05/17 06:03:10;;;;;;;1.88;0.55;;;14.50;99.90;;;;;;5021167;28;20521;-79
2023/05/17 06:05:37;;;;;;;0.40;0.40;;;14.90;99.90;;;;;;5024482;28;20439;-80
2023/05/17 06:08:05;;;;;;;0.82;0.82;;;15.20;99.90;;;;;;5022433;28;20517;-78
2023/05/17 06:10:32;;;;;;;1.30;0.80;;;15.30;99.90;;;;;;5019135;28;20557;-78
2023/05/17 06:12:59;;;;;;;1.90;0.73;;;15.50;99.90;;;;;;5018979;28;20518;-78
2023/05/17 06:15:26;;;;;;;2.40;0.50;;;15.50;99.90;;;;;;5019647;28;20458;-78
2023/05/17 06:17:59;;;;;;;1.48;0.88;;;15.60;99.90;;;;;;5018933;28;20466;-78
2023/05/17 06:20:26;;;;;;;0.50;0.50;;;15.60;99.90;;;;;;5026156;28;20841;-79
2023/05/17 06:22:53;;;;;;;0.68;0.68;;;15.70;99.90;;;;;;5039800;28;21016;-78
2023/05/17 06:25:25;;;;;;;1.10;0.60;;;16.00;99.90;;;;;;5021264;28;20501;-79
2023/05/17 06:27:52;;;;;;;4.07;0.60;;;16.50;99.90;;;;;;5018254;28;20496;-78
2023/05/17 06:30:19;;;;;;;1.30;0.98;;;17.00;99.90;;;;;;5021614;28;20493;-78
2023/05/17 06:32:46;;;;;;;1.70;0.70;;;17.30;99.90;;;;;;5023859;28;20579;-79
2023/05/17 06:35:15;;;;;;;2.10;0.47;;;17.30;99.90;;;;;;5033002;28;20908;-78
2023/05/17 06:37:44;;;;;;;0.68;0.57;;;17.20;99.90;;;;;;5022617;28;20430;-78
2023/05/17 06:40:13;;;;;;;0.80;0.60;;;17.10;99.90;;;;;;5023694;28;20843;-79
2023/05/17 06:42:43;;;;;;;0.70;0.67;;;17.00;99.90;;;;;;5027089;28;20445;-78
2023/05/17 06:45:10;;;;;;;3.03;0.50;;;16.60;99.90;;;;;;5025907;28;20444;-78
2023/05/17 06:47:37;;;;;;;1.23;0.77;;;16.20;99.90;;;;;;5019192;28;21022;-78
2023/05/17 06:50:05;;;;;;;2.55;0.77;;;15.50;99.90;;;;;;5027668;28;20439;-77
2023/05/17 06:52:32;;;;;;;0.38;0.38;;;15.00;99.90;;;;;;5024020;28;20470;-78
2023/05/17 06:54:59;;;;;;;1.97;0.67;;;14.40;99.90;;;;;;5020297;28;20446;-78
2023/05/17 06:57:26;;;;;;;2.50;0.80;;;14.20;99.90;;;;;;5025834;28;20809;-78
2023/05/17 06:59:52;;;;;;;1.83;0.82;;;13.90;99.90;;;;;;5020430;28;20468;-78
2023/05/17 07:02:26;;;;;;;0.70;0.70;;;13.70;99.90;;;;;;5012407;28;20490;-78
2023/05/17 07:04:53;;;;;;;0.60;0.60;;;13.40;99.90;;;;;;5022720;28;20521;-78
2023/05/17 07:07:23;;;;;;;1.00;1.00;;;13.40;99.90;;;;;;5023896;28;20798;-78
2023/05/17 07:09:50;;;;;;;1.50;0.47;;;13.30;99.90;;;;;;5022633;28;20841;-78
2023/05/17 07:12:17;;;;;;;0.75;0.50;;;13.20;99.90;;;;;;5025223;28;20427;-78
2023/05/17 07:14:43;;;;;;;2.45;0.88;;;13.00;99.90;;;;;;5025424;28;20462;-78
2023/05/17 07:17:10;;;;;;;0.70;0.70;;;13.10;99.90;;;;;;5024677;28;20434;-78
2023/05/17 07:19:37;;;;;;;0.70;0.60;;;13.20;99.90;;;;;;5019435;28;20453;-78
2023/05/17 07:22:04;;;;;;;0.60;0.60;;;13.60;99.90;;;;;;5015925;28;20450;-78
2023/05/17 07:24:34;;;;;;;2.20;0.50;;;13.70;99.90;;;;;;5018714;28;20799;-78
2023/05/17 07:27:01;;;;;;;3.60;0.50;;;14.20;99.90;;;;;;5034318;28;20876;-78
2023/05/17 07:29:29;;;;;;;3.53;0.60;;;15.50;99.90;;;;;;5024323;28;20435;-78
2023/05/17 07:31:56;;;;;;;0.88;0.63;;;16.70;99.90;;;;;;5017029;28;20438;-79
2023/05/17 07:34:24;;;;;;;2.37;1.07;;;17.30;99.90;;;;;;5023630;28;20915;-79
2023/05/17 07:36:51;;;;;;;1.10;0.32;;;17.50;99.90;;;;;;5024279;28;20951;-79
2023/05/17 07:39:18;;;;;;;0.90;0.70;;;17.50;99.90;;;;;;5031230;28;20446;-79
2023/05/17 07:41:45;;;;;;;0.93;0.57;;;17.30;99.90;;;;;;5023763;28;20433;-79
2023/05/17 07:44:12;;;;;;;0.80;0.80;;;17.20;99.90;;;;;;5021353;28;20883;-79
2023/05/17 07:46:38;;;;;;;2.30;0.57;;;16.90;99.90;;;;;;5023169;28;20434;-79
2023/05/17 07:49:05;;;;;;;0.47;0.40;;;16.40;99.90;;;;;;5024851;28;20431;-79
2023/05/17 07:51:33;;;;;;;1.10;0.50;;;16.20;99.90;;;;;;5027193;28;20442;-78
2023/05/17 07:54:02;;;;;;;0.70;0.40;;;15.70;99.90;;;;;;5023616;28;20441;-78
2023/05/17 07:56:28;;;;;;;1.10;1.00;;;15.60;99.90;;;;;;5023657;28;20435;-79
2023/05/17 07:58:56;;;;;;;1.90;0.50;;;15.50;99.90;;;;;;5023547;28;20573;-79
2023/05/17 08:01:23;;;;;;;2.30;0.97;;;14.90;99.90;;;;;;5021349;28;20488;-79
2023/05/17 08:03:50;;;;;;;0.93;0.70;;;14.50;99.90;;;;;;5011667;28;20877;-78
2023/05/17 08:06:17;;;;;;;0.63;0.60;;;14.30;99.90;;;;;;5017864;28;20442;-78
2023/05/17 08:08:44;;;;;;;1.45;1.02;;;14.30;99.90;;;;;;5021523;28;20431;-78
2023/05/17 08:11:12;;;;;;;0.43;0.43;;;14.50;99.90;;;;;;5020478;28;20442;-78
2023/05/17 08:13:38;;;;;;;0.63;0.60;;;14.60;99.90;;;;;;5017230;28;20747;-79
2023/05/17 08:16:07;;;;;;;1.20;0.68;;;14.30;99.90;;;;;;5017673;28;20445;-79
2023/05/17 08:18:41;;;;;;;0.43;0.43;;;14.00;99.90;;;;;;5021390;28;20518;-79
2023/05/17 08:21:10;;;;;;;1.20;0.50;;;14.20;99.90;;;;;;5017883;28;20505;-79
2023/05/17 08:23:37;;;;;;;0.40;0.40;;;14.50;99.90;;;;;;5023357;28;20435;-79
2023/05/17 08:26:04;;;;;;;0.40;0.40;;;14.60;99.90;;;;;;5018798;28;20940;-79
2023/05/17 08:28:30;;;;;;;0.90;0.70;;;14.70;99.90;;;;;;5015146;28;20439;-79
2023/05/17 08:30:57;;;;;;;0.47;0.47;;;14.80;99.90;;;;;;5024034;28;20423;-79
2023/05/17 08:33:24;;;;;;;3.65;0.40;;;14.70;99.90;;;;;;5025350;28;20423;-79
2023/05/17 08:35:54;;;;;;;0.45;0.45;;;14.50;99.90;;;;;;5013676;28;20883;-79
2023/05/17 08:38:23;;;;;;;2.10;0.50;;;14.40;99.90;;;;;;5021103;28;20495;-80
2023/05/17 08:40:54;;;;;;;1.05;0.43;;;14.40;99.90;;;;;;5017412;28;20524;-80
2023/05/17 08:43:23;;;;;;;0.30;0.30;;;14.50;99.90;;;;;;5019199;28;20439;-78
2023/05/17 08:45:56;;;;;;;0.60;0.55;;;14.80;99.90;;;;;;5021630;28;20461;-79
2023/05/17 08:48:25;;;;;;;0.90;0.60;;;14.70;99.90;;;;;;5020226;28;20799;-79
2023/05/17 08:50:56;;;;;;;0.70;0.60;;;14.60;99.90;;;;;;5020079;28;20910;-78
2023/05/17 08:53:26;;;;;;;0.30;0.30;;;14.70;99.90;;;;;;5018765;28;20499;-79
2023/05/17 08:56:01;;;;;;;1.00;0.40;;;14.80;99.90;;;;;;5019895;28;20443;-80
2023/05/17 08:58:37;;;;;;;2.10;0.57;;;15.00;99.90;;;;;;5019876;28;20434;-78
2023/05/17 09:01:22;;;;;;;0.73;0.40;;;15.30;99.90;;;;;;5029470;28;20490;-78
2023/05/17 09:03:53;;;;;;;0.70;0.60;;;15.60;99.90;;;;;;5020866;28;20476;-79
2023/05/17 09:06:23;;;;;;;0.57;0.57;;;15.60;99.90;;;;;;5020316;28;20510;-78
2023/05/17 09:08:51;;;;;;;1.63;1.40;;;15.30;99.90;;;;;;5017869;28;20538;-76
2023/05/17 09:11:31;;;;;;;1.73;0.50;;;15.20;99.90;;;;;;5033746;28;20935;-76
2023/05/17 09:14:03;;;;;;;0.50;0.50;;;15.20;99.90;;;;;;5034006;28;20544;-76
2023/05/17 09:16:32;;;;;;;0.80;0.75;;;15.20;99.90;;;;;;5016201;28;20494;-79
2023/05/17 09:19:07;;;;;;;1.13;0.43;;;15.60;99.90;;;;;;5011318;28;20460;-79
2023/05/17 09:21:35;;;;;;;0.80;0.70;;;16.40;99.90;;;;;;5014296;28;20781;-79
2023/05/17 09:24:02;;;;;;;1.00;0.93;;;16.80;99.90;;;;;;5018391;28;20538;-79
2023/05/17 09:26:42;;;;;;;1.10;0.43;;;17.20;99.90;;;;;;5019870;28;20433;-79
2023/05/17 09:29:14;;;;;;;0.40;0.40;;;17.60;99.90;;;;;;5022634;28;20442;-79
2023/05/17 09:31:42;;;;;;;0.40;0.40;;;17.20;99.90;;;;;;5017549;28;20434;-79
2023/05/17 09:34:09;;;;;;;0.67;0.67;;;16.90;99.90;;;;;;5013133;28;20525;-79
2023/05/17 09:36:37;;;;;;;0.50;0.50;;;16.50;99.90;;;;;;5017295;28;20510;-79
2023/05/17 09:39:09;;;;;;;1.70;0.50;;;16.10;99.90;;;;;;5020248;28;20427;-79
2023/05/17 09:41:46;;;;;;;1.30;0.40;;;15.80;99.90;;;;;;5019774;28;20431;-81
2023/05/17 09:44:14;;;;;;;3.00;0.70;;;15.60;99.90;;;;;;5021136;28;20447;-80
2023/05/17 09:46:44;;;;;;;4.40;0.70;;;15.30;99.90;;;;;;5023283;28;20445;-80
2023/05/17 09:49:11;;;;;;;2.10;0.80;;;15.50;99.90;;;;;;5013215;28;20439;-78
2023/05/17 09:51:43;;;;;;;0.50;0.50;;;15.70;99.90;;;;;;5013541;28;20446;-78
2023/05/17 09:54:10;;;;;;;1.15;0.80;;;16.00;99.90;;;;;;5010138;28;20435;-78
2023/05/17 09:56:38;;;;;;;1.05;0.43;;;16.20;99.90;;;;;;5020332;28;20488;-78
2023/05/17 09:59:11;;;;;;;0.40;0.40;;;16.30;99.90;;;;;;5016315;28;20434;-78
2023/05/17 10:01:41;;;;;;;0.40;0.40;;;16.60;99.90;;;;;;5011410;28;20522;-78
2023/05/17 10:04:11;;;;;;;0.70;0.27;;;16.80;99.90;;;;;;5016145;28;20493;-79
2023/05/17 10:06:40;;;;;;;0.50;0.50;;;17.10;99.90;;;;;;5014645;28;20765;-78
2023/05/17 10:09:12;;;;;;;0.70;0.70;;;17.30;99.90;;;;;;5019251;28;20699;-79
2023/05/17 10:11:42;;;;;;;0.63;0.43;;;17.40;99.90;;;;;;5014270;28;20945;-79
2023/05/17 10:14:17;;;;;;;0.70;0.70;;;17.70;99.90;;;;;;5016703;28;21794;-79
2023/05/17 10:16:45;;;;;;;1.50;0.80;;;18.10;99.90;;;;;;5012060;28;20435;-78
2023/05/17 10:19:12;;;;;;;1.10;0.55;;;18.20;99.90;;;;;;5016292;28;20434;-79
2023/05/17 10:21:43;;;;;;;0.80;0.80;;;18.80;99.90;;;;;;5019555;28;20677;-82
2023/05/17 10:24:11;;;;;;;0.50;0.50;;;19.70;99.90;;;;;;5015878;28;20557;-80
2023/05/17 10:26:38;;;;;;;1.70;0.70;;;20.20;99.90;;;;;;5028196;28;20426;-79
2023/05/17 10:29:06;;;;;;;3.33;0.47;;;20.40;99.90;;;;;;5027833;28;20427;-80
2023/05/17 10:31:35;;;;;;;0.45;0.45;;;21.10;99.90;;;;;;5026013;28;20466;-80
2023/05/17 10:34:05;;;;;;;3.03;0.57;;;20.50;99.90;;;;;;5018326;28;20450;-79
2023/05/17 10:36:32;;;;;;;2.20;0.52;;;20.10;99.90;;;;;;5011303;28;20430;-80
2023/05/17 10:39:00;;;;;;;0.90;0.60;;;19.70;99.90;;;;;;5017619;28;20551;-79
2023/05/17 10:41:33;;;;;;;4.20;0.80;;;18.80;99.90;;;;;;5021030;28;20518;-80
2023/05/17 10:44:08;;;;;;;0.65;0.47;;;18.00;99.90;;;;;;5023848;28;20438;-79
2023/05/17 10:46:35;;;;;;;3.00;0.73;;;17.90;99.90;;;;;;5023767;28;20470;-80
2023/05/17 10:49:02;;;;;;;0.50;0.40;;;17.80;99.90;;;;;;5022967;28;20439;-80
2023/05/17 10:51:32;;;;;;;0.43;0.43;;;17.80;99.90;;;;;;5019347;28;20442;-79
2023/05/17 10:54:06;;;;;;;0.80;0.40;;;17.70;99.90;;;;;;5014659;28;20441;-78
2023/05/17 10:56:34;;;;;;;0.67;0.67;;;18.00;99.90;;;;;;5016245;28;20439;-79
2023/05/17 10:59:20;;;;;;;0.80;0.68;;;18.30;99.90;;;;;;5020547;28;20427;-79
2023/05/17 11:02:03;;;;;;;0.57;0.47;;;19.10;99.90;;;;;;5022156;28;20454;-79
2023/05/17 11:04:40;;;;;;;2.07;0.60;;;19.40;99.90;;;;;;5025336;28;20441;-79
2023/05/17 11:07:16;;;;;;;0.50;0.50;;;19.10;99.90;;;;;;5022688;28;20439;-79
2023/05/17 11:09:48;;;;;;;0.80;0.80;;;19.30;99.90;;;;;;5025879;28;20446;-79
2023/05/17 11:12:26;;;;;;;0.30;0.30;;;20.00;99.90;;;;;;5027883;28;20685;-79
2023/05/17 11:14:54;;;;;;;2.60;0.75;;;20.70;99.90;;;;;;5024879;28;20560;-78
2023/05/17 11:17:26;;;;;;;0.70;0.70;;;21.40;99.90;;;;;;5026859;28;20476;-78
2023/05/17 11:20:00;;;;;;;2.95;0.47;;;21.10;99.90;;;;;;5038425;28;21017;-78
2023/05/17 11:22:36;;;;;;;2.00;0.63;;;20.70;99.90;;;;;;5022367;28;20435;-78
2023/05/17 11:25:07;;;;;;;0.80;0.80;;;20.50;99.90;;;;;;5024341;28;20439;-78
2023/05/17 11:27:52;;;;;;;1.90;0.70;;;20.40;99.90;;;;;;5029428;28;20435;-78
2023/05/17 11:30:27;;;;;;;0.65;0.65;;;20.20;99.90;;;;;;5039616;28;20466;-78
2023/05/17 11:33:00;;;;;;;2.20;0.63;;;20.50;99.90;;;;;;5022199;28;21072;-78
2023/05/17 11:35:31;;;;;;;4.53;0.70;;;20.60;99.90;;;;;;5029555;28;20791;-78
2023/05/17 11:38:18;;;;;;;0.83;0.50;;;20.30;99.90;;;;;;5025669;28;20431;-77
2023/05/17 11:40:46;;;;;;;0.70;0.70;;;20.30;99.90;;;;;;5009860;28;20433;-78
2023/05/17 11:43:15;;;;;;;1.55;0.65;;;20.20;99.90;;;;;;5028622;28;20435;-78
2023/05/17 11:45:46;;;;;;;0.50;0.50;;;20.30;99.90;;;;;;5027943;28;20459;-79
2023/05/17 11:48:14;;;;;;;1.77;0.55;;;20.60;99.90;;;;;;5013258;28;20473;-79
2023/05/17 11:50:42;;;;;;;1.05;0.88;;;20.80;99.90;;;;;;5026466;28;20857;-79
2023/05/17 11:53:10;;;;;;;0.95;0.50;;;20.90;99.90;;;;;;5021117;28;20443;-79
2023/05/17 11:55:38;;;;;;;0.70;0.70;;;20.50;99.90;;;;;;5022901;28;20526;-79
2023/05/17 11:58:08;;;;;;;2.33;1.07;;;20.00;99.90;;;;;;5016528;28;20438;-78
2023/05/17 12:00:41;;;;;;;2.23;0.50;;;19.60;99.90;;;;;;5019491;28;20426;-79
2023/05/17 12:03:28;;;;;;;0.32;0.32;;;19.00;99.90;;;;;;5017976;28;20930;-78
2023/05/17 12:06:08;;;;;;;2.35;0.85;;;18.40;99.90;;;;;;5026344;28;20517;-79
2023/05/17 12:08:42;;;;;;;0.77;0.77;;;18.50;99.90;;;;;;5012113;28;20423;-78
2023/05/17 12:11:14;;;;;;;1.60;0.70;;;18.90;99.90;;;;;;5014873;28;20837;-78
2023/05/17 12:13:41;;;;;;;0.40;0.40;;;18.60;99.90;;;;;;5023779;28;20474;-79
2023/05/17 12:16:15;;;;;;;0.90;0.50;;;18.20;99.90;;;;;;5024277;28;20427;-77
2023/05/17 12:18:48;;;;;;;1.10;0.50;;;18.10;99.90;;;;;;5026807;28;20651;-78
2023/05/17 12:21:17;;;;;;;0.60;0.60;;;17.90;99.90;;;;;;5023855;28;20922;-79
2023/05/17 12:23:45;;;;;;;0.32;0.32;;;18.00;99.90;;;;;;5014124;28;20457;-78
2023/05/17 12:26:20;;;;;;;1.10;0.70;;;18.20;99.90;;;;;;5018934;28;20434;-80
2023/05/17 12:28:58;;;;;;;0.57;0.57;;;17.80;99.90;;;;;;5014953;28;20474;-79
2023/05/17 12:31:48;;;;;;;0.52;0.52;;;18.60;99.90;;;;;;5010945;28;20440;-79
2023/05/17 12:34:16;;;;;;;2.58;0.98;;;19.90;99.90;;;;;;5030669;28;20435;-78
2023/05/17 12:36:44;;;;;;;0.70;0.70;;;20.50;99.90;;;;;;5021699;28;20987;-78
2023/05/17 12:39:12;;;;;;;0.80;0.50;;;21.50;99.90;;;;;;5017684;28;20427;-78
2023/05/17 12:41:39;;;;;;;0.40;0.40;;;21.80;99.90;;;;;;5023129;28;20437;-79
2023/05/17 12:44:07;;;;;;;1.15;0.50;;;22.10;99.90;;;;;;5008484;28;20508;-78
2023/05/17 12:46:41;;;;;;;0.70;0.70;;;21.60;99.90;;;;;;5017008;28;20492;-78
2023/05/17 12:49:10;;;;;;;1.30;0.40;;;21.00;99.90;;;;;;5019323;28;20434;-78
2023/05/17 12:51:42;;;;;;;2.35;0.50;;;20.70;99.90;;;;;;5021957;28;20488;-78
2023/05/17 12:54:11;;;;;;;0.63;0.50;;;19.90;99.90;;;;;;5020891;28;20446;-77
2023/05/17 12:56:45;;;;;;;2.38;0.50;;;19.70;99.90;;;;;;5010711;28;20843;-79
2023/05/17 12:59:17;;;;;;;0.50;0.50;;;19.30;99.90;;;;;;5002810;28;20430;-78
2023/05/17 13:01:46;;;;;;;0.40;0.40;;;18.80;99.90;;;;;;5011882;28;20892;-78
2023/05/17 13:04:14;;;;;;;0.40;0.40;;;18.10;99.90;;;;;;5015074;28;20496;-78